Henderson Grove, Illinois
Current Conditions -  °F | °C
As of 11:15 PM on Wednesday 22 Oct 2014 (Local Time) from KGBG Reporting Station
Clear Clear  
Wind Chill: 45°   Ceiling: Unl
Heat Index: 45°   Visibility: 10mi
Dew Point: 37°   Wind: 3mph
Humidity: 74%   Direction: 120°ESE
Pressure: 30.22"   Gusts: NA
Location:  40.9508°N, 90.3832°W
Report Text: KGBG 230415Z AUTO 12003KT 10SM CLR 07/03 A3022 RMK AO2 T00710027
Loading
Personal Weather Stations






























Interactive Weather Map
Tropical Storm Tracking
New forecast layout! Learn more

10-Day Weather Forecast

Advertisements
Track Severe Weather on mobile